createdAt,value
2019-04-16T00:00:59.491Z,3.76
2019-04-16T00:01:59.524Z,3.88
2019-04-16T00:02:59.452Z,3.86
2019-04-16T00:03:59.439Z,3.88
2019-04-16T00:04:59.567Z,3.80
2019-04-16T00:05:59.828Z,3.84
2019-04-16T00:06:59.565Z,3.76
2019-04-16T00:07:59.340Z,3.69
2019-04-16T00:08:59.318Z,3.78
2019-04-16T00:09:59.296Z,3.78
2019-04-16T00:10:59.277Z,3.69
2019-04-16T00:11:59.252Z,3.73
2019-04-16T00:12:59.231Z,3.73
2019-04-16T00:14:02.999Z,3.69
2019-04-16T00:14:59.185Z,3.68
2019-04-16T00:15:59.166Z,3.60
2019-04-16T00:16:59.141Z,3.60
2019-04-16T00:17:59.122Z,3.60
2019-04-16T00:19:04.421Z,3.60
2019-04-16T00:19:59.081Z,3.48
2019-04-16T00:20:59.055Z,3.57
2019-04-16T00:21:59.047Z,3.47
2019-04-16T00:22:59.010Z,3.50
2019-04-16T00:23:58.990Z,3.43
2019-04-16T00:24:58.965Z,3.50
2019-04-16T00:25:58.948Z,3.45
2019-04-16T00:27:00.007Z,3.43
2019-04-16T00:27:59.979Z,3.43
2019-04-16T00:29:01.659Z,3.42
2019-04-16T00:30:04.139Z,3.47
2019-04-16T00:30:58.847Z,3.39
2019-04-16T00:31:58.811Z,3.45
2019-04-16T00:32:58.788Z,3.43
2019-04-16T00:33:58.766Z,3.39
2019-04-16T00:34:58.896Z,3.36
2019-04-16T00:35:58.719Z,3.24
2019-04-16T00:36:58.696Z,3.29
2019-04-16T00:37:58.678Z,3.28
2019-04-16T00:38:58.665Z,3.32
2019-04-16T00:39:58.637Z,3.28
2019-04-16T00:41:01.360Z,3.24
2019-04-16T00:41:58.591Z,3.29
2019-04-16T00:42:58.571Z,3.28
2019-04-16T00:43:58.551Z,3.24
2019-04-16T00:44:58.528Z,3.20
2019-04-16T00:45:58.501Z,3.20
2019-04-16T00:46:58.635Z,3.17
2019-04-16T00:47:58.471Z,3.17
2019-04-16T00:48:58.438Z,3.20
2019-04-16T00:49:59.551Z,3.20
2019-04-16T00:50:58.387Z,3.14
2019-04-16T00:51:58.369Z,3.20
2019-04-16T00:52:58.348Z,3.21
2019-04-16T00:53:58.325Z,3.17
2019-04-16T00:54:58.305Z,3.08
2019-04-16T00:55:58.279Z,3.05
2019-04-16T00:56:58.259Z,3.06
2019-04-16T00:57:58.241Z,3.10
2019-04-16T00:58:58.215Z,3.06
2019-04-16T01:00:58.173Z,3.13
2019-04-16T01:01:58.223Z,3.05
2019-04-16T01:02:58.406Z,3.08
2019-04-16T01:03:58.356Z,3.11
2019-04-16T01:04:58.270Z,2.97
2019-04-16T01:05:58.059Z,3.03
2019-04-16T01:06:58.039Z,3.10
2019-04-16T01:07:58.016Z,3.06
2019-04-16T01:08:57.997Z,2.99
2019-04-16T01:09:57.976Z,3.06
2019-04-16T01:10:57.956Z,3.06
2019-04-16T01:11:57.927Z,3.02
2019-04-16T01:12:57.905Z,2.99
2019-04-16T01:13:57.879Z,3.03
2019-04-16T01:15:00.678Z,3.00
2019-04-16T01:16:02.462Z,3.03
2019-04-16T01:16:57.818Z,2.99
2019-04-16T01:17:57.791Z,2.97
2019-04-16T01:18:57.773Z,2.97
2019-04-16T01:19:57.761Z,2.95
2019-04-16T01:20:57.722Z,2.93
2019-04-16T01:21:57.704Z,2.92
2019-04-16T01:22:57.683Z,2.96
2019-04-16T01:23:57.658Z,2.99
2019-04-16T01:24:57.640Z,2.96
2019-04-16T01:25:57.615Z,2.96
2019-04-16T01:26:58.387Z,3.03
2019-04-16T01:28:00.966Z,3.02
2019-04-16T01:28:57.564Z,3.06
2019-04-16T01:29:57.602Z,3.10
2019-04-16T01:30:57.650Z,3.03
2019-04-16T01:31:57.652Z,3.02
2019-04-16T01:32:57.462Z,3.13
2019-04-16T01:33:57.439Z,3.11
2019-04-16T01:34:57.568Z,3.14
2019-04-16T01:35:57.546Z,3.06
2019-04-16T01:36:57.368Z,3.11
2019-04-16T01:37:57.714Z,3.21
2019-04-16T01:39:11.010Z,3.15
2019-04-16T01:39:57.304Z,3.20
2019-04-16T01:40:57.280Z,3.08
2019-04-16T01:41:57.267Z,3.08
2019-04-16T01:42:57.231Z,3.06
2019-04-16T01:43:57.888Z,3.03
2019-04-16T01:44:59.785Z,3.14
2019-04-16T01:46:00.758Z,3.13
2019-04-16T01:46:57.146Z,3.14
2019-04-16T01:47:57.134Z,3.13
2019-04-16T01:48:57.100Z,3.10
2019-04-16T01:49:57.081Z,3.17
2019-04-16T01:50:57.060Z,3.17
2019-04-16T01:51:57.036Z,3.10
2019-04-16T01:52:57.012Z,3.17
2019-04-16T01:53:56.995Z,3.11
2019-04-16T01:54:56.972Z,3.14
2019-04-16T01:55:57.702Z,3.18
2019-04-16T01:56:59.515Z,3.18
2019-04-16T01:57:59.645Z,3.21
2019-04-16T01:58:56.879Z,3.20
2019-04-16T01:59:56.858Z,3.18
2019-04-16T02:00:56.832Z,3.17
2019-04-16T02:01:56.808Z,3.13
2019-04-16T02:02:56.788Z,3.17
2019-04-16T02:03:56.766Z,3.21
2019-04-16T02:04:56.746Z,3.17
2019-04-16T02:05:56.724Z,3.15
2019-04-16T02:06:57.196Z,3.13
2019-04-16T02:07:59.279Z,3.14
2019-04-16T02:09:01.866Z,3.17
2019-04-16T02:09:56.633Z,3.21
2019-04-16T02:10:56.612Z,3.05
2019-04-16T02:11:56.586Z,3.18
2019-04-16T02:12:56.565Z,3.14
2019-04-16T02:13:56.546Z,3.05
2019-04-16T02:14:56.516Z,3.02
2019-04-16T02:15:56.501Z,3.13
2019-04-16T02:16:56.732Z,3.14
2019-04-16T02:17:58.810Z,3.10
2019-04-16T02:19:00.766Z,3.05
2019-04-16T02:19:56.410Z,3.08
2019-04-16T02:20:56.386Z,3.11
2019-04-16T02:21:56.363Z,3.02
2019-04-16T02:22:56.342Z,3.02
2019-04-16T02:23:56.320Z,3.03
2019-04-16T02:24:56.299Z,3.02
2019-04-16T02:25:56.272Z,3.02
2019-04-16T02:26:56.252Z,2.99
2019-04-16T02:27:56.998Z,2.99
2019-04-16T02:28:56.542Z,3.00
2019-04-16T02:29:58.577Z,2.96
2019-04-16T02:30:56.180Z,2.99
2019-04-16T02:31:56.141Z,2.93
2019-04-16T02:32:56.119Z,2.96
2019-04-16T02:33:56.101Z,2.97
2019-04-16T02:34:56.078Z,2.90
2019-04-16T02:35:56.053Z,2.93
2019-04-16T02:37:00.283Z,2.93
2019-04-16T02:37:56.007Z,2.93
2019-04-16T02:38:55.980Z,2.92
2019-04-16T02:39:55.963Z,3.00
2019-04-16T02:40:55.965Z,2.97
2019-04-16T02:41:58.071Z,2.97
2019-04-16T02:42:55.896Z,2.96
2019-04-16T02:43:55.875Z,2.97
2019-04-16T02:44:55.849Z,3.02
2019-04-16T02:45:58.059Z,2.99
2019-04-16T02:46:55.809Z,3.00
2019-04-16T02:47:55.783Z,2.95
2019-04-16T02:48:55.760Z,2.96
2019-04-16T02:49:56.744Z,2.93
2019-04-16T02:50:55.711Z,2.87
2019-04-16T02:51:55.705Z,2.85
2019-04-16T02:52:55.670Z,2.89
2019-04-16T02:53:58.710Z,2.85
2019-04-16T02:54:55.631Z,2.87
2019-04-16T02:55:55.605Z,2.79
2019-04-16T02:56:55.580Z,2.75
2019-04-16T02:57:59.507Z,2.78
2019-04-16T02:58:55.547Z,2.66
2019-04-16T02:59:55.509Z,2.77
2019-04-16T03:00:55.493Z,2.60
2019-04-16T03:01:55.465Z,2.60
2019-04-16T03:02:55.443Z,2.61
2019-04-16T03:03:56.418Z,2.63
2019-04-16T03:04:58.213Z,2.63
2019-04-16T03:05:55.377Z,2.64
2019-04-16T03:06:55.361Z,2.66
2019-04-16T03:07:55.333Z,2.56
2019-04-16T03:08:55.310Z,2.59
2019-04-16T03:10:01.661Z,2.61
2019-04-16T03:10:55.264Z,2.61
2019-04-16T03:11:55.241Z,2.52
2019-04-16T03:15:38.447Z,2.54
2019-04-16T03:16:38.776Z,2.57
2019-04-16T03:17:39.606Z,2.59
2019-04-16T03:18:41.003Z,2.56
2019-04-16T03:19:39.002Z,2.60
2019-04-16T03:20:38.341Z,2.56
2019-04-16T03:21:38.320Z,2.59
2019-04-16T03:22:38.293Z,2.57
2019-04-16T03:23:38.273Z,2.54
2019-04-16T03:24:40.170Z,2.52
2019-04-16T03:25:38.227Z,2.56
2019-04-16T03:26:38.202Z,2.46
2019-04-16T03:27:38.179Z,2.43
2019-04-16T03:28:38.156Z,2.42
2019-04-16T03:29:38.135Z,2.45
2019-04-16T03:30:42.222Z,2.49
2019-04-16T03:31:38.089Z,2.36
2019-04-16T03:32:38.076Z,2.34
2019-04-16T03:33:38.046Z,2.38
2019-04-16T03:34:38.016Z,2.31
2019-04-16T03:35:37.998Z,2.35
2019-04-16T03:36:37.979Z,2.27
2019-04-16T03:37:37.953Z,2.24
2019-04-16T03:38:41.919Z,2.27
2019-04-16T03:39:37.909Z,2.20
2019-04-16T03:40:37.887Z,2.20
2019-04-16T03:41:37.866Z,2.17
2019-04-16T03:42:37.841Z,2.10
2019-04-16T03:43:37.819Z,2.23
2019-04-16T03:44:37.800Z,2.20
2019-04-16T03:45:40.494Z,2.05
2019-04-16T03:46:40.027Z,2.09
2019-04-16T03:47:37.731Z,2.06
2019-04-16T03:48:37.707Z,2.05
2019-04-16T03:49:37.683Z,2.03
2019-04-16T03:50:37.663Z,2.00
2019-04-16T03:51:37.643Z,2.14
2019-04-16T03:52:40.897Z,2.00
2019-04-16T03:53:37.594Z,2.00
2019-04-16T03:54:37.611Z,1.95
2019-04-16T03:55:37.547Z,2.00
2019-04-16T03:56:37.528Z,1.98
2019-04-16T03:57:37.503Z,1.93
2019-04-16T03:58:38.766Z,1.95
2019-04-16T03:59:40.021Z,1.91
2019-04-16T04:00:37.455Z,1.95
2019-04-16T04:01:37.414Z,1.99
2019-04-16T04:02:37.389Z,1.91
2019-04-16T04:03:37.369Z,1.98
2019-04-16T04:04:37.345Z,1.95
2019-04-16T04:05:37.324Z,1.83
2019-04-16T04:06:39.638Z,1.95
2019-04-16T04:07:37.278Z,1.81
2019-04-16T04:08:37.322Z,1.87
2019-04-16T04:09:37.227Z,1.93
2019-04-16T04:10:37.946Z,1.87
2019-04-16T04:11:40.832Z,1.93
2019-04-16T04:12:37.165Z,1.81
2019-04-16T04:13:37.144Z,1.86
2019-04-16T04:14:37.114Z,1.86
2019-04-16T04:15:37.091Z,1.84
2019-04-16T04:16:37.074Z,1.87
2019-04-16T04:17:38.730Z,1.87
2019-04-16T04:18:37.028Z,1.81
2019-04-16T04:19:37.004Z,1.83
2019-04-16T04:20:36.980Z,1.81
2019-04-16T04:21:36.954Z,1.83
2019-04-16T04:22:36.935Z,1.84
2019-04-16T04:23:36.914Z,1.83
2019-04-16T04:24:36.888Z,1.83
2019-04-16T04:25:37.102Z,1.84
2019-04-16T04:26:40.880Z,1.86
2019-04-16T04:27:36.828Z,1.84
2019-04-16T04:28:36.802Z,1.88
2019-04-16T04:29:36.778Z,1.88
2019-04-16T04:30:36.753Z,1.88
2019-04-16T04:31:36.738Z,1.81
2019-04-16T04:32:36.713Z,1.83
2019-04-16T04:33:40.751Z,2.00
2019-04-16T04:34:36.665Z,1.98
2019-04-16T04:35:36.643Z,2.00
2019-04-16T04:36:36.621Z,1.95
2019-04-16T04:37:36.601Z,1.98
2019-04-16T04:38:37.576Z,1.98
2019-04-16T04:39:36.553Z,1.91
2019-04-16T04:40:44.367Z,1.95
2019-04-16T04:41:36.510Z,2.00
2019-04-16T04:42:36.485Z,1.91
2019-04-16T04:43:36.460Z,1.99
2019-04-16T04:44:37.140Z,1.99
2019-04-16T04:45:37.650Z,1.99
2019-04-16T04:46:36.390Z,1.98
2019-04-16T04:47:36.368Z,2.10
2019-04-16T04:48:36.346Z,1.99
2019-04-16T04:49:36.318Z,2.16
2019-04-16T04:50:36.298Z,2.03
2019-04-16T04:51:39.795Z,2.05
2019-04-16T04:52:36.257Z,2.05
2019-04-16T04:53:36.233Z,2.06
2019-04-16T04:54:36.222Z,2.18
2019-04-16T04:55:36.184Z,2.21
2019-04-16T04:56:36.168Z,2.20
2019-04-16T04:57:36.137Z,2.25
2019-04-16T04:58:36.122Z,2.28
2019-04-16T04:59:36.743Z,2.23
2019-04-16T05:00:37.429Z,2.30
2019-04-16T05:01:36.055Z,2.23
2019-04-16T05:02:36.027Z,2.24
2019-04-16T05:03:36.006Z,2.24
2019-04-16T05:04:35.993Z,2.34
2019-04-16T05:05:35.957Z,2.41
2019-04-16T05:06:35.940Z,2.41
2019-04-16T05:07:35.915Z,2.45
2019-04-16T05:08:35.894Z,2.43
2019-04-16T05:09:36.761Z,2.46
2019-04-16T05:10:39.877Z,2.56
2019-04-16T05:11:35.823Z,2.52
2019-04-16T05:12:35.808Z,2.61
2019-04-16T05:13:35.780Z,2.59
2019-04-16T05:14:35.755Z,2.66
2019-04-16T05:15:35.739Z,2.67
2019-04-16T05:16:35.711Z,2.74
2019-04-16T05:17:38.483Z,2.75
2019-04-16T05:18:41.392Z,2.75
2019-04-16T05:19:35.644Z,2.90
2019-04-16T05:20:35.625Z,2.90
2019-04-16T05:21:35.599Z,2.89
2019-04-16T05:22:35.581Z,2.82
2019-04-16T05:23:37.742Z,2.96
2019-04-16T05:25:35.511Z,3.00
2019-04-16T05:26:36.596Z,3.02
2019-04-16T05:27:39.936Z,3.06
2019-04-16T05:28:35.434Z,3.23
2019-04-16T05:29:35.415Z,3.17
2019-04-16T05:30:35.393Z,3.35
2019-04-16T05:31:35.372Z,3.35
2019-04-16T05:32:35.348Z,3.40
2019-04-16T05:33:37.415Z,3.52
2019-04-16T05:34:37.387Z,3.55
2019-04-16T05:35:35.286Z,3.65
2019-04-16T05:36:35.259Z,3.70
2019-04-16T05:37:35.235Z,3.66
2019-04-16T05:38:35.214Z,3.79
2019-04-16T05:39:35.191Z,3.91
2019-04-16T05:40:35.356Z,3.79
2019-04-16T05:41:35.147Z,3.91
2019-04-16T05:42:35.130Z,3.96
2019-04-16T05:43:35.101Z,4.04
2019-04-16T05:44:35.078Z,4.06
2019-04-16T05:45:37.687Z,4.11
2019-04-16T05:46:35.043Z,4.22
2019-04-16T05:47:35.012Z,4.23
2019-04-16T05:48:34.984Z,4.33
2019-04-16T05:49:34.965Z,4.40
2019-04-16T05:50:34.940Z,4.47
2019-04-16T05:51:34.915Z,4.52
2019-04-16T05:52:35.730Z,4.62
2019-04-16T05:53:37.325Z,4.63
2019-04-16T05:54:34.854Z,4.70
2019-04-16T05:55:34.833Z,4.78
2019-04-16T05:56:34.810Z,4.89
2019-04-16T05:57:34.786Z,4.88
2019-04-16T05:58:34.765Z,5.00
2019-04-16T05:59:34.745Z,5.02
2019-04-16T06:00:34.748Z,5.10
2019-04-16T06:01:34.697Z,5.12
2019-04-16T06:02:34.678Z,5.15
2019-04-16T06:03:34.655Z,5.18
2019-04-16T06:04:35.642Z,5.27
2019-04-16T06:05:34.610Z,5.35
2019-04-16T06:06:34.586Z,5.30
2019-04-16T06:07:37.798Z,5.45
2019-04-16T06:08:34.539Z,5.53
2019-04-16T06:09:34.518Z,5.61
2019-04-16T06:10:34.497Z,5.64
2019-04-16T06:11:36.484Z,5.68
2019-04-16T06:12:34.549Z,5.83
2019-04-16T06:13:34.434Z,5.89
2019-04-16T06:14:34.406Z,5.96
2019-04-16T06:15:35.945Z,5.93
2019-04-16T06:16:34.364Z,6.06
2019-04-16T06:17:34.341Z,6.04
2019-04-16T06:18:38.049Z,6.18
2019-04-16T06:19:34.294Z,6.17
2019-04-16T06:20:34.278Z,6.28
2019-04-16T06:21:34.251Z,6.40
2019-04-16T06:22:34.230Z,6.43
2019-04-16T06:23:34.224Z,6.52
2019-04-16T06:24:35.810Z,6.61
2019-04-16T06:25:34.167Z,6.61
2019-04-16T06:26:34.153Z,6.73
2019-04-16T06:27:34.117Z,6.84
2019-04-16T06:28:34.099Z,6.87
2019-04-16T06:29:34.073Z,7.06
2019-04-16T06:30:34.163Z,7.02
2019-04-16T06:31:36.279Z,7.07
2019-04-16T06:32:34.013Z,7.20
2019-04-16T06:33:33.986Z,7.35
2019-04-16T06:34:33.966Z,7.75
2019-04-16T06:35:43.235Z,8.28
2019-04-16T06:36:33.925Z,8.77
2019-04-16T06:37:33.900Z,9.33
2019-04-16T06:38:33.878Z,9.76
2019-04-16T06:39:33.856Z,10.26
2019-04-16T06:40:33.840Z,10.59
2019-04-16T06:41:41.584Z,11.03
2019-04-16T06:42:33.789Z,11.15
2019-04-16T06:43:33.783Z,11.32
2019-04-16T06:44:35.062Z,11.33
2019-04-16T06:45:37.003Z,11.96
2019-04-16T06:46:33.707Z,12.10
2019-04-16T06:47:33.688Z,12.14
2019-04-16T06:48:33.664Z,11.90
2019-04-16T06:49:34.617Z,12.02
2019-04-16T06:50:39.654Z,11.98
2019-04-16T06:51:33.606Z,12.13
2019-04-16T06:52:33.581Z,12.31
2019-04-16T06:53:33.565Z,12.50
2019-04-16T06:54:33.540Z,12.82
2019-04-16T06:55:36.017Z,13.03
2019-04-16T06:56:33.500Z,13.28
2019-04-16T06:57:33.491Z,13.32
2019-04-16T06:58:49.852Z,13.19
2019-04-16T06:59:33.449Z,13.64
2019-04-16T07:01:25.963Z,13.85
2019-04-16T07:02:25.944Z,13.79
2019-04-16T07:03:27.382Z,13.75
2019-04-16T07:04:29.558Z,14.03
2019-04-16T07:05:25.890Z,14.04
2019-04-16T07:06:25.876Z,14.32
2019-04-16T07:07:38.552Z,14.42
2019-04-16T07:08:37.147Z,14.33
2019-04-16T07:09:26.506Z,14.52
2019-04-16T07:10:29.569Z,14.88
2019-04-16T07:11:25.794Z,14.92
2019-04-16T07:12:25.850Z,15.20
2019-04-16T07:13:25.751Z,15.06
2019-04-16T07:14:25.934Z,15.09
2019-04-16T07:15:28.582Z,15.34
2019-04-16T07:16:28.885Z,15.36
2019-04-16T07:17:26.095Z,15.23
2019-04-16T07:18:25.674Z,15.10
2019-04-16T07:19:25.657Z,14.98
2019-04-16T07:20:25.643Z,15.23
2019-04-16T07:21:25.627Z,15.43
2019-04-16T07:22:25.609Z,15.49
2019-04-16T07:23:26.019Z,15.47
2019-04-16T07:24:30.131Z,14.88
2019-04-16T07:25:27.850Z,14.52
2019-04-16T07:26:25.583Z,14.51
2019-04-16T07:27:25.828Z,14.06
2019-04-16T07:28:26.784Z,13.96
2019-04-16T07:29:25.682Z,13.99
2019-04-16T07:30:25.580Z,13.85
2019-04-16T07:31:33.280Z,13.69
2019-04-16T07:32:25.590Z,13.60
2019-04-16T07:33:25.460Z,13.42
2019-04-16T07:34:25.449Z,13.14
2019-04-16T07:35:27.136Z,12.93
2019-04-16T07:36:27.238Z,12.77
2019-04-16T07:37:25.415Z,12.86
2019-04-16T07:38:25.401Z,12.93
2019-04-16T07:39:29.366Z,12.86
2019-04-16T07:40:25.376Z,12.71
2019-04-16T07:41:25.362Z,12.56
2019-04-16T07:42:26.466Z,12.45
2019-04-16T07:43:25.340Z,12.46
2019-04-16T07:44:25.331Z,12.41
2019-04-16T07:45:25.319Z,12.35
2019-04-16T07:46:25.306Z,12.50
2019-04-16T07:47:25.293Z,12.65
2019-04-16T07:48:25.287Z,12.71
2019-04-16T07:49:26.518Z,12.70
2019-04-16T07:50:25.265Z,12.86
2019-04-16T07:51:25.253Z,12.77
2019-04-16T07:52:25.245Z,12.67
2019-04-16T07:53:25.235Z,12.71
2019-04-16T07:54:25.224Z,12.77
2019-04-16T07:55:26.750Z,13.11
2019-04-16T07:56:25.200Z,13.10
2019-04-16T07:57:25.193Z,13.19
2019-04-16T07:58:25.179Z,13.28
2019-04-16T07:59:25.178Z,13.39
2019-04-16T08:00:25.163Z,13.79
2019-04-16T08:01:25.150Z,14.00
2019-04-16T08:02:25.134Z,14.17
2019-04-16T08:03:26.904Z,14.51
2019-04-16T08:04:29.058Z,14.62
2019-04-16T08:05:27.816Z,14.95
2019-04-16T08:06:25.092Z,15.17
2019-04-16T08:07:25.082Z,15.60
2019-04-16T08:08:25.502Z,16.21
2019-04-16T08:09:28.935Z,16.39
2019-04-16T08:10:25.050Z,16.56
2019-04-16T08:11:25.036Z,16.86
2019-04-16T08:12:30.659Z,17.21
2019-04-16T08:13:25.019Z,17.75
2019-04-16T08:14:25.004Z,18.07
2019-04-16T08:15:24.990Z,18.25
2019-04-16T08:16:24.981Z,18.48
2019-04-16T08:17:24.970Z,18.91
2019-04-16T08:18:24.962Z,19.06
2019-04-16T08:19:36.097Z,19.25
2019-04-16T08:20:24.943Z,19.40
2019-04-16T08:21:24.927Z,19.62
2019-04-16T08:22:24.943Z,19.71
2019-04-16T08:23:24.908Z,19.16
2019-04-16T08:24:25.544Z,18.94
2019-04-16T08:25:24.889Z,18.80
2019-04-16T08:26:24.880Z,18.48
2019-04-16T08:27:24.882Z,18.54
2019-04-16T08:29:12.403Z,18.63
2019-04-16T08:30:12.390Z,18.67
2019-04-16T08:31:13.130Z,18.57
2019-04-16T08:32:12.901Z,18.62
2019-04-16T08:33:12.356Z,18.84
2019-04-16T08:34:12.349Z,19.06
2019-04-16T08:35:12.335Z,19.02
2019-04-16T08:36:12.325Z,18.92
2019-04-16T08:37:12.384Z,18.87
2019-04-16T08:38:12.311Z,18.63
2019-04-16T08:39:12.309Z,18.32
2019-04-16T08:40:13.161Z,18.36
2019-04-16T08:41:13.206Z,18.30
2019-04-16T08:42:12.289Z,18.12
2019-04-16T08:43:12.270Z,18.02
2019-04-16T08:44:12.250Z,17.92
2019-04-16T08:45:12.239Z,17.92
2019-04-16T08:46:12.232Z,18.05
2019-04-16T08:47:12.979Z,18.11
2019-04-16T08:48:17.000Z,18.20
2019-04-16T08:49:14.852Z,18.41
2019-04-16T08:50:12.622Z,18.45
2019-04-16T08:51:12.176Z,18.60
2019-04-16T08:52:12.182Z,18.76
2019-04-16T08:53:14.277Z,18.66
2019-04-16T08:54:12.184Z,18.37
2019-04-16T08:55:12.128Z,18.37
2019-04-16T08:56:12.179Z,18.39
2019-04-16T08:57:12.116Z,18.44
2019-04-16T08:58:12.852Z,18.51
2019-04-16T08:59:12.090Z,18.84
2019-04-16T09:00:15.140Z,18.85
2019-04-16T09:01:12.065Z,18.78
2019-04-16T09:02:12.113Z,18.51
2019-04-16T09:03:15.235Z,18.39
2019-04-16T09:04:12.034Z,18.54
2019-04-16T09:05:12.015Z,18.82
2019-04-16T09:06:13.481Z,18.90
2019-04-16T09:07:13.408Z,18.91
2019-04-16T09:08:13.766Z,19.07
2019-04-16T09:09:15.549Z,19.32
2019-04-16T09:10:18.084Z,18.94
2019-04-16T09:11:22.636Z,18.63
2019-04-16T09:12:11.931Z,18.66
2019-04-16T09:13:12.011Z,18.67
2019-04-16T09:14:11.913Z,18.84
2019-04-16T09:15:11.904Z,19.19
2019-04-16T09:16:11.952Z,19.21
2019-04-16T09:17:11.877Z,18.91
2019-04-16T09:18:11.882Z,18.80
2019-04-16T09:19:11.851Z,18.60
2019-04-16T09:20:11.842Z,18.36
2019-04-16T09:21:11.834Z,18.23
2019-04-16T09:22:15.472Z,18.07
2019-04-16T09:23:11.807Z,18.08
2019-04-16T09:24:11.797Z,18.17
2019-04-16T09:25:13.888Z,18.27
2019-04-16T09:26:15.057Z,18.15
2019-04-16T09:27:13.309Z,17.93
2019-04-16T09:28:24.557Z,17.95
2019-04-16T09:29:11.740Z,18.26
2019-04-16T09:30:16.920Z,18.35
2019-04-16T09:31:11.707Z,18.51
2019-04-16T09:32:11.700Z,18.60
2019-04-16T09:33:11.693Z,18.70
2019-04-16T09:34:11.712Z,18.45
2019-04-16T09:35:18.544Z,18.29
2019-04-16T09:36:11.645Z,18.32
2019-04-16T09:37:11.633Z,18.05
2019-04-16T09:38:13.183Z,17.74
2019-04-16T09:39:11.606Z,17.82
2019-04-16T09:40:17.797Z,17.70
2019-04-16T09:41:11.580Z,17.89
2019-04-16T09:42:11.571Z,17.82
2019-04-16T09:43:17.663Z,17.79
2019-04-16T09:44:11.545Z,17.68
2019-04-16T09:45:11.532Z,17.78
2019-04-16T09:46:20.612Z,17.87
2019-04-16T09:47:11.506Z,18.08
2019-04-16T09:48:11.496Z,18.33
2019-04-16T09:49:11.482Z,18.23
2019-04-16T09:50:11.664Z,18.05
2019-04-16T09:51:11.460Z,18.05
2019-04-16T09:52:11.445Z,17.77
2019-04-16T09:53:11.434Z,17.82
2019-04-16T09:54:13.584Z,17.84
2019-04-16T09:55:11.419Z,17.79
2019-04-16T09:56:11.403Z,17.62
2019-04-16T09:57:11.387Z,17.56
2019-04-16T09:58:11.387Z,17.58
2019-04-16T09:59:15.741Z,17.70
2019-04-16T10:00:11.358Z,17.87
2019-04-16T10:01:11.338Z,18.17
2019-04-16T10:02:11.326Z,18.27
2019-04-16T10:03:11.323Z,18.26
2019-04-16T10:04:11.304Z,18.23
2019-04-16T10:05:11.299Z,18.26
2019-04-16T10:06:11.289Z,18.39
2019-04-16T10:07:11.275Z,18.58
2019-04-16T10:08:12.628Z,18.70
2019-04-16T10:09:11.270Z,18.70
2019-04-16T10:10:11.247Z,18.69
2019-04-16T10:11:11.232Z,18.87
2019-04-16T10:12:11.239Z,18.90
2019-04-16T10:13:11.212Z,18.81
2019-04-16T10:14:11.211Z,18.76
2019-04-16T10:15:11.203Z,18.52
2019-04-16T10:16:13.547Z,18.91
2019-04-16T10:17:11.232Z,19.22
2019-04-16T10:18:11.185Z,19.66
2019-04-16T10:19:11.174Z,19.74
2019-04-16T10:20:11.172Z,19.96
2019-04-16T10:21:11.156Z,20.05
2019-04-16T10:22:11.139Z,19.99
2019-04-16T10:23:11.123Z,19.99
2019-04-16T10:24:13.125Z,20.23
2019-04-16T10:25:11.110Z,20.41
2019-04-16T10:26:11.106Z,20.58
2019-04-16T10:27:11.095Z,20.89
2019-04-16T10:28:11.092Z,21.24
2019-04-16T10:29:11.093Z,21.64
2019-04-16T10:30:11.080Z,21.62
2019-04-16T10:31:11.075Z,21.61
2019-04-16T10:32:11.077Z,21.84
2019-04-16T10:33:11.081Z,21.61
2019-04-16T10:34:11.079Z,21.68
2019-04-16T10:35:11.054Z,22.14
2019-04-16T10:36:11.066Z,22.62
2019-04-16T10:37:11.037Z,23.22
2019-04-16T10:38:13.534Z,23.48
2019-04-16T10:39:11.033Z,23.57
2019-04-16T10:40:11.018Z,23.80
2019-04-16T10:41:11.057Z,24.12
2019-04-16T10:42:11.038Z,24.30
2019-04-16T10:43:11.029Z,24.50
2019-04-16T10:44:11.005Z,24.77
2019-04-16T10:45:11.029Z,24.24
2019-04-16T10:46:10.991Z,24.15
2019-04-16T10:47:12.563Z,24.61
2019-04-16T10:48:10.995Z,24.91
2019-04-16T10:49:11.055Z,24.88
2019-04-16T10:50:11.002Z,24.28
2019-04-16T10:51:15.233Z,23.33
2019-04-16T10:52:10.974Z,22.37
2019-04-16T10:53:10.995Z,22.40
2019-04-16T10:54:10.972Z,22.65
2019-04-16T10:55:12.158Z,22.65
2019-04-16T10:56:10.957Z,22.82
2019-04-16T10:57:10.965Z,22.85
2019-04-16T10:58:10.985Z,22.73
2019-04-16T10:59:10.952Z,22.43
2019-04-16T11:00:10.946Z,22.67
2019-04-16T11:01:10.947Z,23.27
2019-04-16T11:02:10.984Z,23.50
2019-04-16T11:03:10.942Z,23.88
2019-04-16T11:04:10.953Z,24.10
2019-04-16T11:05:10.952Z,24.31
2019-04-16T11:06:10.961Z,24.88
2019-04-16T11:07:10.936Z,25.13
2019-04-16T11:08:10.932Z,25.60
2019-04-16T11:09:10.935Z,24.93
2019-04-16T11:10:11.945Z,24.52
2019-04-16T11:11:10.924Z,24.55
2019-04-16T11:12:10.922Z,24.87
2019-04-16T11:13:10.922Z,25.13
2019-04-16T11:14:10.934Z,25.28
2019-04-16T11:15:11.727Z,25.70
2019-04-16T11:16:10.928Z,25.80
2019-04-16T11:17:10.933Z,25.52
2019-04-16T11:18:10.934Z,25.30
2019-04-16T11:19:10.923Z,25.62
2019-04-16T11:20:10.961Z,25.83
2019-04-16T11:21:10.916Z,26.17
2019-04-16T11:22:10.910Z,26.69
2019-04-16T11:23:10.942Z,27.17
2019-04-16T11:24:10.898Z,27.55
2019-04-16T11:25:11.028Z,28.14
2019-04-16T11:26:10.895Z,28.66
2019-04-16T11:27:10.884Z,28.95
2019-04-16T11:28:13.758Z,28.40
2019-04-16T11:29:10.897Z,28.09
2019-04-16T11:30:10.908Z,27.24
2019-04-16T11:31:10.881Z,26.28
2019-04-16T11:32:10.878Z,25.79
2019-04-16T11:33:10.875Z,25.62
2019-04-16T11:34:10.872Z,25.85
2019-04-16T11:35:13.083Z,26.20
2019-04-16T11:36:19.456Z,25.80
2019-04-16T11:37:10.868Z,25.65
2019-04-16T11:38:11.131Z,25.92
2019-04-16T11:39:10.872Z,26.02
2019-04-16T11:40:10.866Z,26.15
2019-04-16T11:41:10.905Z,26.23
2019-04-16T11:42:10.907Z,26.09
2019-04-16T11:43:10.862Z,26.15
2019-04-16T11:44:15.539Z,26.15
2019-04-16T11:45:11.484Z,25.85
2019-04-16T11:46:10.883Z,25.15
2019-04-16T11:47:10.934Z,25.50
2019-04-16T11:48:11.188Z,25.50
2019-04-16T11:49:10.859Z,25.76
2019-04-16T11:50:10.858Z,25.99
2019-04-16T11:51:10.855Z,25.83
2019-04-16T11:52:11.118Z,25.82
2019-04-16T11:53:10.849Z,26.15
2019-04-16T11:54:11.844Z,26.26
2019-04-16T11:55:10.847Z,26.97
2019-04-16T11:56:10.892Z,27.29
2019-04-16T11:57:13.109Z,27.75
2019-04-16T11:58:10.846Z,28.06
2019-04-16T11:59:10.837Z,27.41
2019-04-16T12:00:11.054Z,26.60
2019-04-16T12:01:10.882Z,25.94
2019-04-16T12:02:10.875Z,26.06
2019-04-16T12:03:10.866Z,26.13
2019-04-16T12:04:14.891Z,25.97
2019-04-16T12:05:10.835Z,26.17
2019-04-16T12:06:10.883Z,26.51
2019-04-16T12:07:10.831Z,26.73
2019-04-16T12:08:10.862Z,26.26
2019-04-16T12:09:10.835Z,26.25
2019-04-16T12:10:10.835Z,26.21
2019-04-16T12:11:11.059Z,26.15
2019-04-16T12:12:10.871Z,26.33
2019-04-16T12:13:10.852Z,25.82
2019-04-16T12:14:10.841Z,25.65
2019-04-16T12:15:10.828Z,25.76
2019-04-16T12:16:10.848Z,25.69
2019-04-16T12:17:10.861Z,25.88
2019-04-16T12:18:10.827Z,25.87
2019-04-16T12:19:10.854Z,25.88
2019-04-16T12:20:10.908Z,25.75
2019-04-16T12:21:10.821Z,25.17
2019-04-16T12:22:10.818Z,25.10
2019-04-16T12:23:10.846Z,25.54
2019-04-16T12:24:10.839Z,25.54
2019-04-16T12:25:10.859Z,25.55
2019-04-16T12:26:10.818Z,25.67
2019-04-16T12:27:10.820Z,25.47
2019-04-16T12:28:12.602Z,25.55
2019-04-16T12:29:10.996Z,26.01
2019-04-16T12:30:10.934Z,25.54
2019-04-16T12:31:10.852Z,25.39
2019-04-16T12:32:10.807Z,25.87
2019-04-16T12:33:14.008Z,26.25
2019-04-16T12:34:10.798Z,26.81
2019-04-16T12:35:10.846Z,26.76
2019-04-16T12:36:14.126Z,26.77
2019-04-16T12:37:10.801Z,26.94
2019-04-16T12:38:13.235Z,27.10
2019-04-16T12:39:10.899Z,26.70
2019-04-16T12:40:10.810Z,26.12
2019-04-16T12:41:10.817Z,26.26
2019-04-16T12:42:10.835Z,26.48
2019-04-16T12:43:14.719Z,26.30
2019-04-16T12:44:10.809Z,26.13
2019-04-16T12:45:10.831Z,26.01
2019-04-16T12:46:10.800Z,25.99
2019-04-16T12:47:10.789Z,25.42
2019-04-16T12:48:10.789Z,24.91
2019-04-16T12:49:10.785Z,24.87
2019-04-16T12:50:10.812Z,24.45
2019-04-16T12:51:10.804Z,24.30
2019-04-16T12:52:15.622Z,24.57
2019-04-16T12:53:10.857Z,24.85
2019-04-16T12:54:10.778Z,25.21
2019-04-16T12:55:10.823Z,24.64
2019-04-16T12:56:10.777Z,24.42
2019-04-16T12:57:14.918Z,24.27
2019-04-16T12:58:10.767Z,23.93
2019-04-16T12:59:10.845Z,23.02
2019-04-16T13:00:10.765Z,22.40
2019-04-16T13:01:10.759Z,21.80
2019-04-16T13:02:13.373Z,21.16
2019-04-16T13:03:10.794Z,20.72
2019-04-16T13:04:10.754Z,20.55
2019-04-16T13:05:10.934Z,20.33
2019-04-16T13:06:10.799Z,20.38
2019-04-16T13:07:10.744Z,20.21
2019-04-16T13:08:10.948Z,20.31
2019-04-16T13:09:10.785Z,20.38
2019-04-16T13:10:10.973Z,20.36
2019-04-16T13:11:10.721Z,20.28
2019-04-16T13:12:10.717Z,20.13